Townsville, Australia

8:06 AM AEST on December 08, 2016 (GMT +1000)
Townsville International | | Change Station

Elev 20 ft 19.25 °S, 146.77 °E | Updated 6 minutes ago

Partly Cloudy
Partly Cloudy
86 °F
Feels Like 92 °F
N
15
Wind Variable Wind from NE

Today
High -- | Low -- °F
--% Chance of Precip.
Yesterday
High -- | Low -- °F
Precip. -- in
Pressure 29.86 in
Visibility 6.2 miles
Clouds Few 2200 ft
Heat Index 92 °F
Dew Point 72 °F
Humidity 62%
Rainfall 0.00 in
Snow Depth Not available.
5:27 AM 6:42 PM
First Quarter, 56% visible
METAR YBTL 072200Z 05013KT 9999 FEW022 30/22 Q1011 NOSIG
Pressure 29.86 in
Visibility 6.2 miles
Clouds Few 2200 ft
Heat Index 92 °F
Dew Point 72 °F
Humidity 62%
Rainfall 0.00 in
Snow Depth Not available.
5:27 AM 6:42 PM
First Quarter, 56% visible
METAR YBTL 072200Z 05013KT 9999 FEW022 30/22 Q1011 NOSIG

10-Day Weather Forecast

×

Almanac

Astronomy

Dec. 08, 2016 Rise Set
Actual Time
Civil Twilight
Nautical Twilight
Astronomical Twilight
Moon
Length of Visible Light
Length of Day
Tomorrow will be .
, % of the Moon is Illuminated

Today's Extremes

Country Highs Country Lows

Community

WunderPhotos

Upload Photos

1,956,209 photos uploaded!

WunderBlog® & News

Nearby

Air Quality

  Air Quality AQ Index Pollutant
Not available.

Snow Depth

Station Depth Elevation

Earthquake Activity

City Distance Mag. Time & Date
Minimum magnitude displayed is 2.5.

Coastal Water Temperatures

Place Temperature

Stations

Nearby Weather Stations

Station Location Temp. Windchill Dew Point Humidity Wind Precip. Elev Updated Type